createdAt,value
2019-03-01T00:00:42.333Z,9.860535
2019-03-01T00:01:51.849Z,9.860535
2019-03-01T00:03:01.355Z,9.830322
2019-03-01T00:04:10.853Z,9.830322
2019-03-01T00:05:20.356Z,9.830322
2019-03-01T00:06:29.878Z,9.840393
2019-03-01T00:07:39.393Z,9.830322
2019-03-01T00:08:48.899Z,9.830322
2019-03-01T00:09:58.406Z,9.860535
2019-03-01T00:11:07.913Z,9.870605
2019-03-01T00:12:17.434Z,9.910889
2019-03-01T00:13:26.940Z,9.941101
2019-03-01T00:14:36.430Z,9.951172
2019-03-01T00:15:45.931Z,9.981384
2019-03-01T00:16:55.449Z,9.971313
2019-03-01T00:18:04.951Z,9.971313
2019-03-01T00:19:14.456Z,9.941101
2019-03-01T00:20:23.963Z,9.941101
2019-03-01T00:21:33.463Z,9.890747
2019-03-01T00:22:42.994Z,9.920959
2019-03-01T00:23:52.497Z,9.910889
2019-03-01T00:25:02.009Z,9.920959
2019-03-01T00:26:11.498Z,9.920959
2019-03-01T00:27:21.014Z,9.910889
2019-03-01T00:28:30.516Z,9.890747
2019-03-01T00:29:40.021Z,9.870605
2019-03-01T00:30:49.517Z,9.860535
2019-03-01T00:31:59.040Z,9.870605
2019-03-01T00:33:08.542Z,9.870605
2019-03-01T00:34:18.048Z,9.870605
2019-03-01T00:35:27.551Z,9.840393
2019-03-01T00:36:37.040Z,9.830322
2019-03-01T00:37:46.553Z,9.820251
2019-03-01T00:38:56.062Z,9.80011
2019-03-01T00:40:05.561Z,9.790039
2019-03-01T00:41:15.070Z,9.80011
2019-03-01T00:42:24.587Z,9.759827
2019-03-01T00:43:34.092Z,9.759827
2019-03-01T00:44:43.616Z,9.739685
2019-03-01T00:45:53.100Z,9.719543
2019-03-01T00:47:02.623Z,9.719543
2019-03-01T00:48:12.128Z,9.719543
2019-03-01T00:49:21.631Z,9.689331
2019-03-01T00:50:31.152Z,9.729614
2019-03-01T00:51:40.656Z,9.719543
2019-03-01T00:52:50.158Z,9.67926
2019-03-01T00:53:59.663Z,9.659119
2019-03-01T00:55:09.165Z,9.659119
2019-03-01T00:56:18.686Z,9.649048
2019-03-01T00:57:28.185Z,9.649048
2019-03-01T00:58:37.688Z,9.649048
2019-03-01T00:59:47.193Z,9.638977
2019-03-01T01:00:56.711Z,9.578552
2019-03-01T01:02:06.217Z,9.578552
2019-03-01T01:03:15.732Z,9.54834
2019-03-01T01:04:25.239Z,9.558411
2019-03-01T01:05:34.753Z,9.54834
2019-03-01T01:06:44.267Z,9.538269
2019-03-01T01:07:53.772Z,9.497986
2019-03-01T01:09:03.319Z,9.497986
2019-03-01T01:10:12.828Z,9.477844
2019-03-01T01:11:22.348Z,9.457703
2019-03-01T01:12:31.848Z,9.407349
2019-03-01T01:13:41.363Z,9.397278
2019-03-01T01:14:50.865Z,9.367065
2019-03-01T01:16:00.387Z,9.316711
2019-03-01T01:17:09.892Z,9.286499
2019-03-01T01:18:19.408Z,9.306641
2019-03-01T01:19:28.913Z,9.286499
2019-03-01T01:20:38.423Z,9.276428
2019-03-01T01:21:47.928Z,9.246216
2019-03-01T01:22:57.437Z,9.246216
2019-03-01T01:24:06.953Z,9.226074
2019-03-01T01:25:16.454Z,9.205933
2019-03-01T01:26:25.962Z,9.216003
2019-03-01T01:27:35.466Z,9.185791
2019-03-01T01:28:44.974Z,9.135437
2019-03-01T01:29:54.476Z,9.105225
2019-03-01T01:31:03.982Z,9.075012
2019-03-01T01:32:13.499Z,9.064941
2019-03-01T01:33:23.012Z,9.034729
2019-03-01T01:34:32.486Z,9.024658
2019-03-01T01:35:41.987Z,8.994446
2019-03-01T01:36:51.508Z,8.944092
2019-03-01T01:38:01.002Z,8.954163
2019-03-01T01:39:10.507Z,8.944092
2019-03-01T01:40:20.010Z,8.92395
2019-03-01T01:41:29.544Z,8.893738
2019-03-01T01:42:39.046Z,8.883667
2019-03-01T01:43:48.553Z,8.883667
2019-03-01T01:44:58.061Z,8.873596
2019-03-01T01:46:07.583Z,8.873596
2019-03-01T01:47:17.106Z,8.873596
2019-03-01T01:48:26.601Z,8.883667
2019-03-01T01:49:36.095Z,8.873596
2019-03-01T01:50:45.591Z,8.873596
2019-03-01T01:51:55.107Z,8.843384
2019-03-01T01:53:04.618Z,8.823242
2019-03-01T01:54:14.118Z,8.843384
2019-03-01T01:55:23.617Z,8.853455
2019-03-01T01:56:33.119Z,8.853455
2019-03-01T01:57:42.638Z,8.883667
2019-03-01T01:58:52.142Z,8.913879
2019-03-01T02:00:01.638Z,8.893738
2019-03-01T02:01:11.145Z,8.893738
2019-03-01T02:02:20.666Z,8.883667
2019-03-01T02:03:30.172Z,8.883667
2019-03-01T02:04:39.680Z,8.873596
2019-03-01T02:05:49.194Z,8.873596
2019-03-01T02:06:58.723Z,8.853455
2019-03-01T02:08:08.224Z,8.883667
2019-03-01T02:09:17.727Z,8.883667
2019-03-01T02:10:27.262Z,8.913879
2019-03-01T02:11:36.769Z,8.893738
2019-03-01T02:12:46.304Z,8.883667
2019-03-01T02:13:55.811Z,8.883667
2019-03-01T02:15:05.310Z,8.873596
2019-03-01T02:16:14.803Z,8.873596
2019-03-01T02:17:24.334Z,8.883667
2019-03-01T02:18:33.829Z,8.883667
2019-03-01T02:19:43.377Z,8.92395
2019-03-01T02:20:52.932Z,8.92395
2019-03-01T02:22:02.448Z,8.944092
2019-03-01T02:23:11.951Z,8.944092
2019-03-01T02:24:21.455Z,8.893738
2019-03-01T02:25:30.956Z,8.92395
2019-03-01T02:26:40.467Z,8.92395
2019-03-01T02:27:49.983Z,8.944092
2019-03-01T02:28:59.485Z,8.944092
2019-03-01T02:30:08.978Z,9.004517
2019-03-01T02:31:18.477Z,9.024658
2019-03-01T02:32:27.995Z,8.974304
2019-03-01T02:33:37.502Z,8.944092
2019-03-01T02:34:47.006Z,8.92395
2019-03-01T02:35:56.511Z,8.92395
2019-03-01T02:37:06.018Z,8.883667
2019-03-01T02:38:15.534Z,8.853455
2019-03-01T02:39:25.038Z,8.853455
2019-03-01T02:40:34.530Z,8.843384
2019-03-01T02:41:44.035Z,8.843384
2019-03-01T02:42:53.558Z,8.823242
2019-03-01T02:44:03.059Z,8.813171
2019-03-01T02:45:12.555Z,8.843384
2019-03-01T02:46:22.052Z,8.853455
2019-03-01T02:47:31.583Z,8.843384
2019-03-01T02:48:41.089Z,8.813171
2019-03-01T02:49:50.589Z,8.79303
2019-03-01T02:51:00.108Z,8.79303
2019-03-01T02:52:09.621Z,8.813171
2019-03-01T02:53:19.138Z,8.813171
2019-03-01T02:54:28.644Z,8.79303
2019-03-01T02:55:38.147Z,8.782959
2019-03-01T02:56:47.655Z,8.762817
2019-03-01T02:57:57.163Z,8.742676
2019-03-01T02:59:06.665Z,8.742676
2019-03-01T03:00:16.176Z,8.762817
2019-03-01T03:01:25.682Z,8.742676
2019-03-01T03:02:35.198Z,8.732605
2019-03-01T03:03:44.764Z,8.742676
2019-03-01T03:04:54.266Z,8.782959
2019-03-01T03:06:03.808Z,8.762817
2019-03-01T03:07:13.325Z,8.782959
2019-03-01T03:08:22.833Z,8.762817
2019-03-01T03:09:32.369Z,8.742676
2019-03-01T03:10:41.874Z,8.782959
2019-03-01T03:11:51.372Z,8.782959
2019-03-01T03:13:00.894Z,8.742676
2019-03-01T03:14:10.402Z,8.813171
2019-03-01T03:15:19.924Z,8.79303
2019-03-01T03:16:29.455Z,8.813171
2019-03-01T03:17:38.913Z,8.843384
2019-03-01T03:18:48.437Z,8.853455
2019-03-01T03:19:57.963Z,8.853455
2019-03-01T03:21:07.467Z,8.873596
2019-03-01T03:22:16.968Z,8.853455
2019-03-01T03:23:26.513Z,8.873596
2019-03-01T03:24:36.028Z,8.853455
2019-03-01T03:25:46.525Z,8.853455
2019-03-01T03:26:56.038Z,8.913879
2019-03-01T03:28:05.570Z,8.944092
2019-03-01T03:29:15.082Z,8.92395
2019-03-01T03:30:24.616Z,8.92395
2019-03-01T03:31:34.096Z,8.913879
2019-03-01T03:32:43.596Z,8.843384
2019-03-01T03:33:53.114Z,8.742676
2019-03-01T03:35:02.613Z,8.662109
2019-03-01T03:36:12.115Z,8.561401
2019-03-01T03:37:21.627Z,8.490906
2019-03-01T03:38:31.153Z,8.480835
2019-03-01T03:39:40.641Z,8.440552
2019-03-01T03:40:51.136Z,8.380127
2019-03-01T03:42:00.640Z,8.359985
2019-03-01T03:43:10.166Z,8.359985
2019-03-01T03:44:19.671Z,8.42041
2019-03-01T03:45:29.174Z,8.410339
2019-03-01T03:46:38.683Z,8.380127
2019-03-01T03:47:48.192Z,8.42041
2019-03-01T03:48:57.722Z,8.490906
2019-03-01T03:50:07.219Z,8.490906
2019-03-01T03:51:16.727Z,8.511047
2019-03-01T03:52:26.233Z,8.511047
2019-03-01T03:53:35.766Z,8.480835
2019-03-01T03:54:45.264Z,8.380127
2019-03-01T03:55:54.768Z,8.309631
2019-03-01T03:57:04.274Z,8.239136
2019-03-01T03:58:13.811Z,8.188782
2019-03-01T03:59:23.311Z,8.088074
2019-03-01T04:00:32.815Z,7.977295
2019-03-01T04:01:42.320Z,7.926941
2019-03-01T04:02:51.835Z,7.906799
2019-03-01T04:04:01.355Z,7.947083
2019-03-01T04:05:10.926Z,7.937012
2019-03-01T04:06:20.432Z,7.846375
2019-03-01T04:07:29.957Z,7.846375
2019-03-01T04:08:39.456Z,7.796021
2019-03-01T04:09:48.963Z,7.765808
2019-03-01T04:10:58.470Z,7.745667
2019-03-01T04:12:07.972Z,7.745667
2019-03-01T04:13:17.480Z,7.745667
2019-03-01T04:14:26.986Z,7.725525
2019-03-01T04:15:36.496Z,7.725525
2019-03-01T04:16:46.059Z,7.725525
2019-03-01T04:17:55.573Z,7.655029
2019-03-01T04:19:05.121Z,7.655029
2019-03-01T04:20:14.632Z,7.655029
2019-03-01T04:21:24.130Z,7.655029
2019-03-01T04:22:33.642Z,7.574463
2019-03-01T04:23:43.161Z,7.54425
2019-03-01T04:24:52.672Z,7.503967
2019-03-01T04:26:02.162Z,7.473755
2019-03-01T04:27:11.674Z,7.433472
2019-03-01T04:28:21.174Z,7.393188
2019-03-01T04:29:30.694Z,7.393188
2019-03-01T04:30:40.207Z,7.473755
2019-03-01T04:31:49.711Z,7.473755
2019-03-01T04:32:59.213Z,7.53418
2019-03-01T04:34:08.731Z,7.54425
2019-03-01T04:35:18.248Z,7.564392
2019-03-01T04:36:27.741Z,7.503967
2019-03-01T04:37:37.247Z,7.453613
2019-03-01T04:38:46.765Z,7.433472
2019-03-01T04:39:56.289Z,7.433472
2019-03-01T04:41:05.789Z,7.433472
2019-03-01T04:42:15.319Z,7.403259
2019-03-01T04:43:24.833Z,7.383118
2019-03-01T04:44:34.374Z,7.362976
2019-03-01T04:45:43.879Z,7.352905
2019-03-01T04:46:53.392Z,7.362976
2019-03-01T04:48:02.913Z,7.332764
2019-03-01T04:49:13.432Z,7.332764
2019-03-01T04:50:22.963Z,7.362976
2019-03-01T04:51:39.821Z,7.383118
2019-03-01T04:52:41.974Z,7.423401
2019-03-01T04:53:51.493Z,7.423401
2019-03-01T04:55:01.001Z,7.423401
2019-03-01T04:56:10.506Z,7.393188
2019-03-01T04:57:20.016Z,7.433472
2019-03-01T04:58:29.537Z,7.403259
2019-03-01T04:59:39.047Z,7.383118
2019-03-01T05:00:48.547Z,7.352905
2019-03-01T05:01:58.059Z,7.332764
2019-03-01T05:03:07.581Z,7.393188
2019-03-01T05:04:17.082Z,7.393188
2019-03-01T05:05:26.588Z,7.423401
2019-03-01T05:06:36.097Z,7.423401
2019-03-01T05:07:45.617Z,7.403259
2019-03-01T05:08:55.138Z,7.433472
2019-03-01T05:10:04.649Z,7.433472
2019-03-01T05:11:14.161Z,7.453613
2019-03-01T05:12:23.675Z,7.433472
2019-03-01T05:13:33.177Z,7.423401
2019-03-01T05:14:42.685Z,7.423401
2019-03-01T05:15:52.204Z,7.423401
2019-03-01T05:17:01.740Z,7.433472
2019-03-01T05:18:11.243Z,7.514038
2019-03-01T05:19:20.848Z,7.564392
2019-03-01T05:20:31.139Z,7.584534
2019-03-01T05:21:39.880Z,7.584534
2019-03-01T05:22:49.400Z,7.614746
2019-03-01T05:23:58.908Z,7.614746
2019-03-01T05:25:08.417Z,7.634888
2019-03-01T05:26:17.918Z,7.655029
2019-03-01T05:27:27.435Z,7.634888
2019-03-01T05:28:36.936Z,7.634888
2019-03-01T05:29:46.443Z,7.695312
2019-03-01T05:30:55.943Z,7.695312
2019-03-01T05:32:05.477Z,7.6651
2019-03-01T05:33:15.084Z,7.655029
2019-03-01T05:34:24.642Z,7.634888
2019-03-01T05:35:34.150Z,7.655029
2019-03-01T05:36:43.669Z,7.584534
2019-03-01T05:37:53.201Z,7.584534
2019-03-01T05:39:02.716Z,7.574463
2019-03-01T05:40:12.220Z,7.574463
2019-03-01T05:41:21.717Z,7.604675
2019-03-01T05:42:31.248Z,7.655029
2019-03-01T05:43:40.761Z,7.715454
2019-03-01T05:44:50.269Z,7.715454
2019-03-01T05:46:00.772Z,7.725525
2019-03-01T05:47:10.320Z,7.745667
2019-03-01T05:48:19.828Z,7.765808
2019-03-01T05:49:29.336Z,7.755737
2019-03-01T05:50:38.869Z,7.6651
2019-03-01T05:51:48.401Z,7.54425
2019-03-01T05:52:57.991Z,7.393188
2019-03-01T05:54:07.496Z,7.201843
2019-03-01T05:55:17.002Z,7.03064
2019-03-01T05:56:26.504Z,6.970215
2019-03-01T05:57:36.025Z,6.849365
2019-03-01T05:58:45.526Z,6.748657
2019-03-01T05:59:55.039Z,6.698303
2019-03-01T06:01:04.542Z,6.698303
2019-03-01T06:02:14.068Z,6.718445
2019-03-01T06:03:23.566Z,6.718445
2019-03-01T06:04:33.081Z,6.698303
2019-03-01T06:05:42.583Z,6.748657
2019-03-01T06:06:52.093Z,6.688232
2019-03-01T06:08:01.617Z,6.698303
2019-03-01T06:09:11.124Z,6.65802
2019-03-01T06:10:20.633Z,6.617737
2019-03-01T06:11:30.144Z,6.617737
2019-03-01T06:12:39.671Z,6.688232
2019-03-01T06:13:49.169Z,6.65802
2019-03-01T06:14:58.676Z,6.698303
2019-03-01T06:16:08.183Z,6.698303
2019-03-01T06:17:17.703Z,6.688232
2019-03-01T06:18:27.207Z,6.637878
2019-03-01T06:19:36.726Z,6.688232
2019-03-01T06:20:46.233Z,6.718445
2019-03-01T06:21:55.746Z,6.738586
2019-03-01T06:23:05.271Z,6.738586
2019-03-01T06:24:14.779Z,6.748657
2019-03-01T06:25:24.303Z,6.768799
2019-03-01T06:26:33.803Z,6.78894
2019-03-01T06:27:43.325Z,6.839294
2019-03-01T06:28:52.884Z,6.849365
2019-03-01T06:30:03.374Z,6.819153
2019-03-01T06:31:12.896Z,6.78894
2019-03-01T06:32:22.408Z,6.839294
2019-03-01T06:33:31.924Z,6.839294
2019-03-01T06:34:41.455Z,6.869507
2019-03-01T06:35:50.957Z,6.879578
2019-03-01T06:37:00.463Z,6.849365
2019-03-01T06:38:09.983Z,6.849365
2019-03-01T06:39:19.506Z,6.889648
2019-03-01T06:40:29.058Z,6.919861
2019-03-01T06:41:38.540Z,6.919861
2019-03-01T06:42:48.068Z,6.889648
2019-03-01T06:43:57.571Z,6.919861
2019-03-01T06:45:07.089Z,6.950073
2019-03-01T06:46:16.596Z,6.970215
2019-03-01T06:47:26.124Z,6.990356
2019-03-01T06:48:35.637Z,6.970215
2019-03-01T06:49:45.148Z,7.000427
2019-03-01T06:50:54.652Z,6.990356
2019-03-01T06:52:04.161Z,7.050781
2019-03-01T06:53:13.676Z,7.070923
2019-03-01T06:54:23.197Z,7.101135
2019-03-01T06:55:32.698Z,7.101135
2019-03-01T06:56:42.204Z,7.101135
2019-03-01T06:57:51.728Z,7.131348
2019-03-01T06:59:01.236Z,7.141418
2019-03-01T07:00:10.737Z,7.171631
2019-03-01T07:01:20.241Z,7.211914
2019-03-01T07:02:29.765Z,7.252197
2019-03-01T07:03:39.265Z,7.29248
2019-03-01T07:04:48.774Z,7.312622
2019-03-01T07:06:03.260Z,7.322693
2019-03-01T07:07:07.797Z,7.352905
2019-03-01T07:08:17.324Z,7.383118
2019-03-01T07:09:26.826Z,7.362976
2019-03-01T07:10:36.337Z,7.362976
2019-03-01T07:11:45.872Z,7.352905
2019-03-01T07:12:55.390Z,7.332764
2019-03-01T07:14:04.894Z,7.332764
2019-03-01T07:15:14.416Z,7.332764
2019-03-01T07:16:23.922Z,7.352905
2019-03-01T07:17:33.435Z,7.332764
2019-03-01T07:18:42.975Z,7.362976
2019-03-01T07:19:52.475Z,7.332764
2019-03-01T07:21:01.989Z,7.29248
2019-03-01T07:22:11.493Z,7.28241
2019-03-01T07:23:21.011Z,7.232056
2019-03-01T07:24:31.503Z,7.211914
2019-03-01T07:25:42.455Z,7.181702
2019-03-01T07:26:50.495Z,7.171631
2019-03-01T07:28:00.017Z,7.151489
2019-03-01T07:29:09.538Z,7.141418
2019-03-01T07:30:19.041Z,7.151489
2019-03-01T07:31:28.543Z,7.151489
2019-03-01T07:32:38.063Z,7.131348
2019-03-01T07:33:47.580Z,7.141418
2019-03-01T07:34:57.084Z,7.131348
2019-03-01T07:36:06.593Z,7.131348
2019-03-01T07:37:16.103Z,7.131348
2019-03-01T07:38:25.616Z,7.131348
2019-03-01T07:39:35.117Z,7.141418
2019-03-01T07:40:44.624Z,7.131348
2019-03-01T07:41:54.165Z,7.101135
2019-03-01T07:43:03.686Z,7.060852
2019-03-01T07:44:13.182Z,7.03064
2019-03-01T07:45:22.714Z,6.990356
2019-03-01T07:46:32.219Z,6.960144
2019-03-01T07:47:41.733Z,6.929932
2019-03-01T07:48:51.258Z,6.869507
2019-03-01T07:50:00.764Z,6.839294
2019-03-01T07:51:10.268Z,6.768799
2019-03-01T07:52:19.812Z,6.718445
2019-03-01T07:53:29.375Z,6.65802
2019-03-01T07:54:39.954Z,6.627808
2019-03-01T07:55:50.496Z,6.567383
2019-03-01T07:57:01.038Z,6.557312
2019-03-01T07:58:11.572Z,6.506958
2019-03-01T07:59:23.908Z,6.486816
2019-03-01T08:00:32.741Z,6.506958
2019-03-01T08:01:42.352Z,6.476746
2019-03-01T08:02:51.912Z,6.456604
2019-03-01T08:04:01.484Z,6.456604
2019-03-01T08:05:11.099Z,6.446533
2019-03-01T08:06:20.671Z,6.456604
2019-03-01T08:07:30.337Z,6.436462
2019-03-01T08:08:40.059Z,6.416321
2019-03-01T08:09:49.633Z,6.386108
2019-03-01T08:11:00.130Z,6.376038
2019-03-01T08:12:08.803Z,6.40625
2019-03-01T08:13:18.545Z,6.376038
2019-03-01T08:14:30.486Z,6.345825
2019-03-01T08:15:40.655Z,6.305542
2019-03-01T08:16:47.120Z,6.295471
2019-03-01T08:17:57.748Z,6.27533
2019-03-01T08:19:08.312Z,6.204834
2019-03-01T08:20:18.819Z,6.174622
2019-03-01T08:21:29.393Z,6.124268
2019-03-01T08:22:47.825Z,6.094055
2019-03-01T08:23:50.540Z,6.083984
2019-03-01T08:24:59.129Z,6.083984
2019-03-01T08:26:08.688Z,6.083984
2019-03-01T08:27:18.259Z,6.083984
2019-03-01T08:28:27.835Z,6.083984
2019-03-01T08:29:37.449Z,6.053772
2019-03-01T08:30:47.019Z,6.043701
2019-03-01T08:31:57.555Z,6.02356
2019-03-01T08:33:07.907Z,5.993347
2019-03-01T08:34:17.676Z,5.983276
2019-03-01T08:35:28.166Z,5.983276
2019-03-01T08:36:38.530Z,6.013489
2019-03-01T08:37:45.506Z,6.013489
2019-03-01T08:38:55.072Z,6.013489
2019-03-01T08:40:05.633Z,6.013489
2019-03-01T08:41:16.162Z,6.02356
2019-03-01T08:42:26.706Z,6.043701
2019-03-01T08:43:37.261Z,6.013489
2019-03-01T08:44:47.838Z,6.013489
2019-03-01T08:45:58.407Z,6.043701
2019-03-01T08:47:08.943Z,6.02356
2019-03-01T08:48:19.504Z,6.043701
2019-03-01T08:49:30.101Z,6.053772
2019-03-01T08:50:39.672Z,6.073914
2019-03-01T08:51:49.245Z,6.083984
2019-03-01T08:52:59.819Z,6.094055
2019-03-01T08:54:10.432Z,6.094055
2019-03-01T08:55:19.968Z,6.144409
2019-03-01T08:56:29.575Z,6.164551
2019-03-01T08:57:44.157Z,6.144409
2019-03-01T08:58:48.677Z,6.174622
2019-03-01T08:59:58.291Z,6.174622
2019-03-01T09:01:09.633Z,6.164551
2019-03-01T09:02:17.439Z,6.144409
2019-03-01T09:03:27.000Z,6.114197
2019-03-01T09:04:37.861Z,6.114197
2019-03-01T09:05:47.138Z,6.094055
2019-03-01T09:06:56.704Z,6.094055
2019-03-01T09:08:06.291Z,6.124268
2019-03-01T09:09:17.525Z,6.114197
2019-03-01T09:10:28.993Z,6.083984
2019-03-01T09:11:34.982Z,6.114197
2019-03-01T09:12:45.531Z,6.144409
2019-03-01T09:13:55.138Z,6.164551
2019-03-01T09:15:07.269Z,6.174622
2019-03-01T09:16:14.346Z,6.204834
2019-03-01T09:17:23.897Z,6.204834
2019-03-01T09:18:33.981Z,6.194763
2019-03-01T09:19:42.982Z,6.194763
2019-03-01T09:20:52.589Z,6.194763
2019-03-01T09:22:03.067Z,6.174622
2019-03-01T09:23:22.751Z,6.164551
2019-03-01T09:24:25.589Z,6.164551
2019-03-01T09:25:32.555Z,6.174622
2019-03-01T09:26:43.049Z,6.224976
2019-03-01T09:27:52.544Z,6.255188
2019-03-01T09:29:02.048Z,6.295471
2019-03-01T09:30:12.580Z,6.345825
2019-03-01T09:31:22.085Z,6.386108
2019-03-01T09:32:33.793Z,6.436462
2019-03-01T09:33:41.103Z,6.506958
2019-03-01T09:34:50.617Z,6.557312
2019-03-01T09:36:00.155Z,6.617737
2019-03-01T09:37:09.660Z,6.698303
2019-03-01T09:38:19.182Z,6.768799
2019-03-01T09:39:28.714Z,6.77887
2019-03-01T09:40:38.207Z,6.849365
2019-03-01T09:41:47.712Z,6.919861
2019-03-01T09:42:58.204Z,6.929932
2019-03-01T09:44:07.714Z,6.960144
2019-03-01T09:45:19.230Z,7.020569
2019-03-01T09:46:28.246Z,7.000427
2019-03-01T09:47:36.888Z,7.03064
2019-03-01T09:48:49.367Z,7.000427
2019-03-01T09:49:56.483Z,6.950073
2019-03-01T09:51:07.150Z,6.950073
2019-03-01T09:52:14.252Z,6.950073
2019-03-01T09:53:24.737Z,7.000427
2019-03-01T09:54:35.230Z,7.000427
2019-03-01T09:55:44.740Z,7.060852
2019-03-01T09:56:54.253Z,7.070923
2019-03-01T09:58:03.763Z,7.050781
2019-03-01T09:59:13.274Z,7.070923
2019-03-01T10:00:22.800Z,7.131348
2019-03-01T10:01:32.306Z,7.060852
2019-03-01T10:02:41.812Z,7.050781
2019-03-01T10:03:51.318Z,7.000427
2019-03-01T10:05:00.840Z,6.970215
2019-03-01T10:06:10.349Z,7.020569
2019-03-01T10:07:19.899Z,7.000427
2019-03-01T10:08:29.461Z,7.03064
2019-03-01T10:09:39.012Z,7.000427
2019-03-01T10:10:48.654Z,7.020569
2019-03-01T10:11:58.208Z,7.020569
2019-03-01T10:13:07.779Z,7.000427
2019-03-01T10:14:17.393Z,7.000427
2019-03-01T10:15:26.972Z,7.03064
2019-03-01T10:16:36.546Z,7.111206
2019-03-01T10:17:46.125Z,7.141418
2019-03-01T10:18:55.732Z,7.171631
2019-03-01T10:20:06.351Z,7.131348
2019-03-01T10:21:15.910Z,7.070923
2019-03-01T10:22:25.414Z,7.111206
2019-03-01T10:23:34.920Z,7.101135
2019-03-01T10:24:44.429Z,7.020569
2019-03-01T10:25:53.944Z,7.050781
2019-03-01T10:27:03.457Z,7.050781
2019-03-01T10:28:12.967Z,7.101135
2019-03-01T10:29:22.480Z,7.070923
2019-03-01T10:30:32.016Z,7.070923
2019-03-01T10:31:41.528Z,7.050781
2019-03-01T10:32:51.043Z,7.050781
2019-03-01T10:34:00.526Z,7.070923
2019-03-01T10:35:10.046Z,7.111206
2019-03-01T10:36:19.563Z,7.151489
2019-03-01T10:37:29.055Z,7.131348
2019-03-01T10:38:38.561Z,7.111206
2019-03-01T10:39:55.157Z,7.131348
2019-03-01T10:40:57.563Z,7.111206
2019-03-01T10:42:07.077Z,7.141418
2019-03-01T10:43:16.590Z,7.060852
2019-03-01T10:44:26.094Z,7.060852
2019-03-01T10:45:35.616Z,7.050781
2019-03-01T10:46:45.168Z,7.070923
2019-03-01T10:47:54.663Z,7.111206
2019-03-01T10:49:04.175Z,7.060852
2019-03-01T10:50:13.697Z,7.060852
2019-03-01T10:51:23.226Z,7.141418
2019-03-01T10:52:32.730Z,7.232056
2019-03-01T10:53:42.245Z,7.242126
2019-03-01T10:54:51.746Z,7.181702
2019-03-01T10:56:01.264Z,7.151489
2019-03-01T10:57:10.782Z,7.171631
2019-03-01T10:58:20.284Z,7.141418
2019-03-01T10:59:29.787Z,7.131348
2019-03-01T11:00:39.322Z,7.171631
2019-03-01T11:01:48.815Z,7.141418
2019-03-01T11:02:59.324Z,7.111206
2019-03-01T11:04:08.824Z,7.131348
2019-03-01T11:05:18.329Z,7.171631
2019-03-01T11:06:27.847Z,7.171631
2019-03-01T11:07:37.353Z,7.201843
2019-03-01T11:08:46.851Z,7.232056
2019-03-01T11:09:56.394Z,7.312622
2019-03-01T11:11:05.918Z,7.322693
2019-03-01T11:12:15.423Z,7.29248
2019-03-01T11:13:24.920Z,7.242126
2019-03-01T11:14:34.424Z,7.242126
2019-03-01T11:15:43.939Z,7.29248
2019-03-01T11:16:55.321Z,7.322693
2019-03-01T11:18:02.946Z,7.332764
2019-03-01T11:19:12.469Z,7.362976
2019-03-01T11:20:21.984Z,7.362976
2019-03-01T11:21:31.501Z,7.332764
2019-03-01T11:22:41.003Z,7.352905
2019-03-01T11:23:50.508Z,7.403259
2019-03-01T11:25:00.016Z,7.383118
2019-03-01T11:26:09.527Z,7.423401
2019-03-01T11:27:19.035Z,7.393188
2019-03-01T11:28:28.534Z,7.393188
2019-03-01T11:29:38.113Z,7.403259
2019-03-01T11:30:47.630Z,7.29248
2019-03-01T11:31:57.136Z,7.332764
2019-03-01T11:33:06.647Z,7.423401
2019-03-01T11:34:16.144Z,7.423401
2019-03-01T11:35:25.656Z,7.403259
2019-03-01T11:36:35.176Z,7.423401
2019-03-01T11:37:44.684Z,7.473755
2019-03-01T11:38:54.188Z,7.383118
2019-03-01T11:40:03.694Z,7.433472
2019-03-01T11:41:13.218Z,7.473755
2019-03-01T11:42:22.725Z,7.483826
2019-03-01T11:43:32.232Z,7.614746
2019-03-01T11:44:41.721Z,7.745667
2019-03-01T11:45:51.246Z,7.725525
2019-03-01T11:47:01.758Z,7.614746
2019-03-01T11:48:11.256Z,7.564392
2019-03-01T11:49:20.925Z,7.483826
2019-03-01T11:50:30.441Z,7.423401
2019-03-01T11:51:39.953Z,7.322693
2019-03-01T11:52:49.457Z,7.29248
2019-03-01T11:53:58.963Z,7.211914
2019-03-01T11:55:08.474Z,7.211914
2019-03-01T11:56:17.985Z,7.181702
2019-03-01T11:57:27.486Z,7.181702
2019-03-01T11:58:36.996Z,7.171631
2019-03-01T11:59:46.512Z,7.211914
2019-03-01T12:00:56.014Z,7.232056
2019-03-01T12:02:05.531Z,7.211914
2019-03-01T12:03:15.497Z,7.242126
2019-03-01T12:04:24.547Z,7.232056
2019-03-01T12:05:34.045Z,7.211914
2019-03-01T12:06:43.560Z,7.201843
2019-03-01T12:07:53.063Z,7.242126
2019-03-01T12:09:02.568Z,7.453613
2019-03-01T12:10:12.462Z,7.503967
2019-03-01T12:11:21.597Z,7.332764
2019-03-01T12:12:31.100Z,7.332764
2019-03-01T12:13:40.609Z,7.423401
2019-03-01T12:14:50.120Z,7.514038
2019-03-01T12:15:59.627Z,7.53418
2019-03-01T12:17:09.166Z,7.634888
2019-03-01T12:18:18.655Z,7.695312
2019-03-01T12:19:28.160Z,7.604675
2019-03-01T12:20:37.662Z,7.564392
2019-03-01T12:21:47.177Z,7.584534
2019-03-01T12:22:56.685Z,7.695312
2019-03-01T12:24:06.196Z,7.584534
2019-03-01T12:25:15.698Z,7.54425
2019-03-01T12:26:25.222Z,7.574463
2019-03-01T12:27:34.724Z,7.655029
2019-03-01T12:28:44.217Z,7.685242
2019-03-01T12:29:53.717Z,7.6651
2019-03-01T12:31:03.222Z,7.6651
2019-03-01T12:32:12.739Z,7.685242
2019-03-01T12:33:22.242Z,7.685242
2019-03-01T12:34:31.746Z,7.614746
2019-03-01T12:35:41.252Z,7.54425
2019-03-01T12:36:50.783Z,7.514038
2019-03-01T12:38:00.280Z,7.514038
2019-03-01T12:39:10.071Z,7.473755
2019-03-01T12:40:19.293Z,7.483826
2019-03-01T12:41:28.808Z,7.514038
2019-03-01T12:42:39.319Z,7.433472
2019-03-01T12:43:48.821Z,7.352905
2019-03-01T12:44:58.352Z,7.362976
2019-03-01T12:46:07.853Z,7.393188
2019-03-01T12:47:18.372Z,7.403259
2019-03-01T12:48:27.886Z,7.423401
2019-03-01T12:49:37.388Z,7.403259
2019-03-01T12:50:46.914Z,7.403259
2019-03-01T12:51:56.424Z,7.483826
2019-03-01T12:53:05.929Z,7.564392
2019-03-01T12:54:15.437Z,7.584534
2019-03-01T12:55:24.941Z,7.574463
2019-03-01T12:56:34.447Z,7.564392
2019-03-01T12:57:43.979Z,7.584534
2019-03-01T12:58:53.475Z,7.604675
2019-03-01T13:00:02.990Z,7.6651
2019-03-01T13:01:12.476Z,7.745667
2019-03-01T13:02:21.998Z,7.695312
2019-03-01T13:03:31.535Z,7.695312
2019-03-01T13:04:41.028Z,7.695312
2019-03-01T13:05:51.545Z,7.755737
2019-03-01T13:07:01.086Z,7.765808
2019-03-01T13:08:12.472Z,7.715454
2019-03-01T13:09:23.391Z,7.715454
2019-03-01T13:10:30.585Z,7.715454
2019-03-01T13:11:41.107Z,7.745667
2019-03-01T13:12:51.593Z,7.765808
2019-03-01T13:14:02.068Z,7.725525
2019-03-01T13:15:13.735Z,7.634888
2019-03-01T13:16:23.388Z,7.604675
2019-03-01T13:17:33.650Z,7.604675
2019-03-01T13:18:40.071Z,7.614746
2019-03-01T13:19:50.556Z,7.715454
2019-03-01T13:21:01.056Z,7.695312
2019-03-01T13:22:10.576Z,7.765808
2019-03-01T13:23:20.085Z,7.796021
2019-03-01T13:24:29.590Z,7.826233
2019-03-01T13:25:39.091Z,7.816162
2019-03-01T13:26:48.605Z,7.906799
2019-03-01T13:27:58.123Z,7.796021
2019-03-01T13:29:07.626Z,7.725525
2019-03-01T13:30:18.130Z,7.685242
2019-03-01T13:31:27.644Z,7.755737
2019-03-01T13:32:37.180Z,7.78595
2019-03-01T13:33:46.700Z,7.906799
2019-03-01T13:34:56.220Z,8.007507
2019-03-01T13:36:05.723Z,8.098145
2019-03-01T13:37:20.081Z,8.128357
2019-03-01T13:38:24.759Z,8.118286
2019-03-01T13:39:35.271Z,8.148499